»·PEaware :: N130LM KJFK-KEWR

N130LM :: KJFK-KEWR

FLIGHT INFORMATION

Flight Status: Arrived
Operator: Privately registered:
United States
More flights under this callsign
Pilot: Justin M. (19723)
Aircraft: DASSAULT AVIATION FALCON 50
(FA50)
More flights by this aircraft type
Origin: KJFK Kennedy Intl
United States
Destination: KEWR Newark Intl
United States
More flights between these airports :: More routes between these airports
Route: JFK5 V16 DIXIE V276 RBV V249 SBJ
File this flight plan on PilotEdge
Remarks:
Altitude:
(Current/Filed)
6,000ft
Speed:
(Current/Filed)
250kts
Departed: 07-Dec-22 11:03 AM
Arrived: 07-Dec-22 11:51 AM
Distance/Time
Traveled:
18nm/0:48
Distance/Time
To Go:
Arrived

Flight Plot

Page will automatically refresh every two minutes.

Flight plan parsing failed; only flown route is shown


Map Options




Map Legend


Flown Route
Filed Route
Departure Airport
Arrival Airport
Navaid (VOR, NDB)
Fix

Horizontal Profiles

Position Reports

Time Latitude Longitude Heading Altitude Ground
Speed
07-Dec-22 10:34 40.649031 -73.810467 300 12ft 0kts
07-Dec-22 10:35 40.649031 -73.810467 300 12ft 0kts
07-Dec-22 10:36 40.649031 -73.810467 300 12ft 0kts
07-Dec-22 10:37 40.649031 -73.810467 300 12ft 0kts
07-Dec-22 10:38 40.649031 -73.810467 300 12ft 0kts
07-Dec-22 10:39 40.649031 -73.810467 300 12ft 0kts
07-Dec-22 10:40 40.649031 -73.810467 300 12ft 0kts
07-Dec-22 10:41 40.649031 -73.810467 300 12ft 0kts
07-Dec-22 10:42 40.649031 -73.810467 300 12ft 0kts
07-Dec-22 10:43 40.649031 -73.810467 300 12ft 0kts
07-Dec-22 10:44 40.649031 -73.810467 300 12ft 0kts
07-Dec-22 10:45 40.649031 -73.810467 300 12ft 0kts
07-Dec-22 10:46 40.649031 -73.810467 300 12ft 0kts
07-Dec-22 10:47 40.649031 -73.810467 300 12ft 0kts
07-Dec-22 10:48 40.649031 -73.810467 300 12ft 0kts
07-Dec-22 10:49 40.649031 -73.810467 300 12ft 0kts
07-Dec-22 10:50 40.649031 -73.810467 300 12ft 0kts
07-Dec-22 10:51 40.649031 -73.810467 300 12ft 0kts
07-Dec-22 10:52 40.649031 -73.810467 300 12ft 0kts
07-Dec-22 10:53 40.649031 -73.810467 300 12ft 0kts
07-Dec-22 10:54 40.649031 -73.810468 300 12ft 0kts
07-Dec-22 10:55 40.649031 -73.810468 300 12ft 0kts
07-Dec-22 10:56 40.649031 -73.810468 300 12ft 0kts
07-Dec-22 10:57 40.649422 -73.811152 315 12ft 7kts
07-Dec-22 10:58 40.650069 -73.814500 300 12ft 8kts
07-Dec-22 10:59 40.650144 -73.815052 241 12ft 1kts
07-Dec-22 11:00 40.649257 -73.815801 211 12ft 1kts
07-Dec-22 11:01 40.648594 -73.816318 209 12ft 10kts
07-Dec-22 11:02 40.642988 -73.804828 122 76ft 140kts
07-Dec-22 11:03 40.612761 -73.746328 127 2698ft 248kts
07-Dec-22 11:04 40.556988 -73.741656 225 4916ft 244kts
07-Dec-22 11:05 40.509582 -73.807192 226 5000ft 246kts
07-Dec-22 11:06 40.462184 -73.871485 218 5023ft 243kts
07-Dec-22 11:07 40.403874 -73.918294 213 6010ft 253kts
07-Dec-22 11:08 40.356386 -73.982056 246 5541ft 250kts
07-Dec-22 11:09 40.331019 -74.065236 247 4999ft 241kts
07-Dec-22 11:10 40.305944 -74.147644 247 4999ft 245kts
07-Dec-22 11:11 40.319854 -74.225083 326 4150ft 269kts
07-Dec-22 11:12 40.385129 -74.270687 327 3030ft 261kts
07-Dec-22 11:13 40.449346 -74.313565 346 2989ft 262kts
07-Dec-22 11:14 40.515290 -74.277024 24 2985ft 243kts
07-Dec-22 11:15 40.569545 -74.242691 24 2488ft 201kts
07-Dec-22 11:16 40.614889 -74.213989 24 1445ft 154kts
07-Dec-22 11:17 40.649442 -74.192089 22 707ft 132kts
07-Dec-22 11:18 40.684334 -74.170429 24 486ft 158kts
07-Dec-22 11:19 40.724588 -74.118469 47 2200ft 229kts
07-Dec-22 11:20 40.780262 -74.091431 348 2615ft 221kts
07-Dec-22 11:21 40.836957 -74.105455 320 3001ft 220kts
07-Dec-22 11:22 40.840465 -74.178019 257 2997ft 209kts
07-Dec-22 11:23 40.829994 -74.254686 257 3021ft 241kts
07-Dec-22 11:24 40.787233 -74.314437 207 2998ft 241kts
07-Dec-22 11:25 40.729369 -74.352034 207 3000ft 240kts
07-Dec-22 11:26 40.670587 -74.390186 207 3007ft 232kts
07-Dec-22 11:27 40.618834 -74.423323 207 3010ft 201kts
07-Dec-22 11:28 40.568880 -74.399939 147 2995ft 199kts
07-Dec-22 11:29 40.529889 -74.359217 147 3007ft 171kts
07-Dec-22 11:30 40.528679 -74.298766 71 3007ft 195kts
07-Dec-22 11:31 40.561814 -74.247439 23 2662ft 191kts
07-Dec-22 11:32 40.608020 -74.218360 23 1613ft 177kts
07-Dec-22 11:33 40.645825 -74.194387 22 780ft 135kts
07-Dec-22 11:34 40.680581 -74.172436 24 450ft 145kts
07-Dec-22 11:35 40.719660 -74.126488 38 2474ft 254kts
07-Dec-22 11:36 40.775670 -74.149992 297 3016ft 254kts
07-Dec-22 11:37 40.821901 -74.202662 256 3009ft 200kts
07-Dec-22 11:38 40.779774 -74.241376 207 3005ft 189kts
07-Dec-22 11:39 40.733631 -74.271203 208 3009ft 184kts
07-Dec-22 11:40 40.687934 -74.300603 207 3008ft 184kts
07-Dec-22 11:41 40.641564 -74.330386 208 3008ft 186kts
07-Dec-22 11:42 40.594718 -74.360515 208 3008ft 188kts
07-Dec-22 11:43 40.546993 -74.355258 147 3006ft 197kts
07-Dec-22 11:44 40.509525 -74.315497 142 3006ft 163kts
07-Dec-22 11:45 40.524865 -74.261090 47 3008ft 184kts
07-Dec-22 11:46 40.570961 -74.241546 21 2381ft 173kts
07-Dec-22 11:47 40.609054 -74.217688 23 1581ft 141kts
07-Dec-22 11:48 40.642922 -74.196231 23 857ft 133kts
07-Dec-22 11:49 40.678345 -74.173759 25 108ft 140kts
07-Dec-22 11:50 40.695703 -74.164133 297 14ft 0kts
07-Dec-22 11:51 40.696842 -74.167170 312 14ft 0kts
07-Dec-22 11:52 40.698390 -74.166444 26 14ft 11kts
07-Dec-22 11:53 40.700931 -74.167419 5 14ft 13kts
07-Dec-22 11:54 40.704759 -74.168305 329 14ft 15kts
07-Dec-22 11:55 40.705519 -74.170073 358 14ft 0kts

Navigation Log

Ident Type
Flight plan parsing failed, navigation log unavailable